Skykomish, Washington
Current Conditions -  °F | °C
As of 3:53 PM on Monday 24 Nov 2014 (Local Time) from KRNT Reporting Station
Overcast Overcast  
Wind Chill: 47°   Ceiling: 5500
Heat Index: 47°   Visibility: 10mi
Dew Point: 44°   Wind: 3mph
Humidity: 90%   Direction: 170°S
Pressure: 30.2"   Gusts: NA
Location:  47.71°N, 121.36°W
Report Text: KRNT 242353Z 17003KT 10SM BKN055 OVC070 08/07 A3020 RMK AO2 RAE43 SLP233 P0000 60000 T00830067 10089 20061 58017
Loading
Personal Weather Stations






























Interactive Weather Map New forecast layout! Learn more

10-Day Weather Forecast

Advertisements
Track Severe Weather on mobile